createdAt,value
2023-03-17T00:01:55.804Z,58.33
2023-03-17T00:04:24.494Z,58.36
2023-03-17T00:06:51.728Z,58.18
2023-03-17T00:09:19.780Z,58.86
2023-03-17T00:11:46.399Z,59.22
2023-03-17T00:14:13.660Z,59.47
2023-03-17T00:16:51.026Z,59.73
2023-03-17T00:19:23.503Z,59.98
2023-03-17T00:21:50.141Z,60.23
2023-03-17T00:24:17.066Z,60.19
2023-03-17T00:26:44.118Z,59.79
2023-03-17T00:29:10.887Z,59.39
2023-03-17T00:31:38.903Z,59.60
2023-03-17T00:34:06.702Z,59.84
2023-03-17T00:36:34.491Z,59.94
2023-03-17T00:39:03.496Z,60.04
2023-03-17T00:41:32.846Z,59.92
2023-03-17T00:43:59.246Z,60.24
2023-03-17T00:46:31.105Z,60.15
2023-03-17T00:48:57.869Z,60.39
2023-03-17T00:51:24.356Z,60.10
2023-03-17T00:53:50.783Z,60.54
2023-03-17T00:56:19.407Z,60.36
2023-03-17T00:58:47.462Z,60.95
2023-03-17T01:01:15.941Z,60.26
2023-03-17T01:03:42.548Z,60.78
2023-03-17T01:06:12.739Z,60.78
2023-03-17T01:08:41.119Z,61.24
2023-03-17T01:11:18.656Z,61.01
2023-03-17T01:13:47.081Z,61.82
2023-03-17T01:16:15.451Z,61.82
2023-03-17T01:18:42.162Z,61.73
2023-03-17T01:21:09.002Z,61.28
2023-03-17T01:23:35.771Z,61.80
2023-03-17T01:26:03.196Z,60.76
2023-03-17T01:28:29.661Z,60.69
2023-03-17T01:30:56.707Z,60.67
2023-03-17T01:33:23.266Z,60.66
2023-03-17T01:35:50.250Z,60.24
2023-03-17T01:38:17.422Z,60.66
2023-03-17T01:40:49.649Z,60.24
2023-03-17T01:43:21.472Z,59.85
2023-03-17T01:46:09.756Z,59.56
2023-03-17T01:48:52.962Z,58.96
2023-03-17T01:51:43.090Z,58.90
2023-03-17T01:54:14.176Z,58.68
2023-03-17T01:56:43.803Z,58.28
2023-03-17T01:59:16.468Z,58.76
2023-03-17T02:01:47.443Z,58.72
2023-03-17T02:04:14.227Z,59.11
2023-03-17T02:06:55.188Z,59.01
2023-03-17T02:09:23.886Z,58.74
2023-03-17T02:11:50.626Z,59.39
2023-03-17T02:14:17.023Z,59.27
2023-03-17T02:16:45.090Z,59.24
2023-03-17T02:19:11.762Z,59.68
2023-03-17T02:21:40.857Z,60.05
2023-03-17T02:24:24.488Z,59.76
2023-03-17T02:26:53.925Z,59.89
2023-03-17T02:29:22.661Z,60.43
2023-03-17T02:31:49.584Z,60.79
2023-03-17T02:34:15.966Z,60.87
2023-03-17T02:36:42.590Z,61.07
2023-03-17T02:39:09.132Z,61.27
2023-03-17T02:41:36.241Z,61.66
2023-03-17T02:44:02.656Z,61.41
2023-03-17T02:46:29.249Z,61.21
2023-03-17T02:48:59.210Z,61.21
2023-03-17T02:51:25.619Z,61.48
2023-03-17T02:53:52.033Z,61.55
2023-03-17T02:56:18.439Z,61.42
2023-03-17T02:58:44.843Z,60.80
2023-03-17T03:01:11.938Z,60.98
2023-03-17T03:03:38.579Z,60.39
2023-03-17T03:06:05.402Z,59.97
2023-03-17T03:08:32.050Z,59.57
2023-03-17T03:11:00.266Z,59.36
2023-03-17T03:13:26.978Z,59.43
2023-03-17T03:15:53.543Z,58.78
2023-03-17T03:18:20.146Z,59.89
2023-03-17T03:20:47.172Z,59.04
2023-03-17T03:23:14.659Z,59.35
2023-03-17T03:25:41.812Z,59.06
2023-03-17T03:28:08.931Z,59.29
2023-03-17T03:30:37.124Z,59.41
2023-03-17T03:33:04.104Z,59.90
2023-03-17T03:35:31.238Z,60.11
2023-03-17T03:37:58.335Z,59.99
2023-03-17T03:40:25.611Z,60.73
2023-03-17T03:42:52.013Z,61.02
2023-03-17T03:45:18.915Z,60.62
2023-03-17T03:47:45.574Z,60.75
2023-03-17T03:50:13.239Z,61.03
2023-03-17T03:52:40.797Z,60.93
2023-03-17T03:55:08.072Z,60.49
2023-03-17T03:57:34.937Z,60.56
2023-03-17T04:00:01.727Z,60.48
2023-03-17T04:02:38.469Z,60.92
2023-03-17T04:05:07.162Z,60.89
2023-03-17T04:07:33.587Z,60.88
2023-03-17T04:10:00.130Z,61.57
2023-03-17T04:12:26.529Z,61.66
2023-03-17T04:14:53.190Z,61.45
2023-03-17T04:17:19.655Z,61.58
2023-03-17T04:19:46.328Z,61.59
2023-03-17T04:22:13.326Z,62.27
2023-03-17T04:24:39.859Z,62.65
2023-03-17T04:27:06.441Z,62.73
2023-03-17T04:29:32.894Z,62.83
2023-03-17T04:31:59.712Z,63.79
2023-03-17T04:34:27.221Z,63.80
2023-03-17T04:36:53.926Z,63.69
2023-03-17T04:39:21.081Z,63.43
2023-03-17T04:41:47.514Z,63.75
2023-03-17T04:44:14.101Z,63.16
2023-03-17T04:46:40.503Z,62.74
2023-03-17T04:49:07.064Z,63.24
2023-03-17T04:51:33.805Z,62.91
2023-03-17T04:54:00.901Z,62.95
2023-03-17T04:56:27.381Z,62.43
2023-03-17T04:58:53.816Z,62.73
2023-03-17T05:01:21.639Z,62.71
2023-03-17T05:03:48.340Z,62.07
2023-03-17T05:06:15.182Z,62.23
2023-03-17T05:08:44.743Z,62.93
2023-03-17T05:11:12.544Z,63.27
2023-03-17T05:13:40.991Z,63.35
2023-03-17T05:16:08.513Z,63.95
2023-03-17T05:18:36.116Z,64.69
2023-03-17T05:21:03.440Z,64.56
2023-03-17T05:23:30.131Z,64.79
2023-03-17T05:26:11.375Z,64.72
2023-03-17T05:28:38.136Z,64.89
2023-03-17T05:31:05.303Z,64.65
2023-03-17T05:33:31.735Z,64.81
2023-03-17T05:35:58.205Z,65.29
2023-03-17T05:38:24.998Z,65.05
2023-03-17T05:40:52.564Z,65.53
2023-03-17T05:43:19.135Z,65.20
2023-03-17T05:45:47.180Z,65.34
2023-03-17T05:48:13.791Z,65.73
2023-03-17T05:50:41.774Z,65.33
2023-03-17T05:53:08.702Z,66.03
2023-03-17T05:55:35.628Z,65.57
2023-03-17T05:58:04.690Z,65.73
2023-03-17T06:00:31.816Z,66.13
2023-03-17T06:02:58.702Z,65.97
2023-03-17T06:05:25.207Z,65.77
2023-03-17T06:08:01.166Z,66.46
2023-03-17T06:10:28.814Z,66.17
2023-03-17T06:12:55.648Z,66.16
2023-03-17T06:15:22.059Z,65.49
2023-03-17T06:17:48.469Z,65.33
2023-03-17T06:20:15.721Z,65.71
2023-03-17T06:23:00.417Z,65.56
2023-03-17T06:25:29.494Z,65.56
2023-03-17T06:27:56.233Z,64.67
2023-03-17T06:30:22.662Z,63.90
2023-03-17T06:32:49.209Z,62.88
2023-03-17T06:35:16.134Z,62.20
2023-03-17T06:37:42.709Z,61.34
2023-03-17T06:40:10.176Z,60.67
2023-03-17T06:42:37.050Z,60.27
2023-03-17T06:45:03.852Z,60.28
2023-03-17T06:47:30.638Z,59.73
2023-03-17T06:49:57.058Z,59.65
2023-03-17T06:52:23.490Z,59.03
2023-03-17T06:54:49.878Z,59.49
2023-03-17T06:57:16.617Z,58.38
2023-03-17T06:59:42.996Z,58.45
2023-03-17T07:02:11.704Z,58.09
2023-03-17T07:04:38.449Z,57.91
2023-03-17T07:07:05.887Z,57.79
2023-03-17T07:09:34.377Z,57.95
2023-03-17T07:12:07.252Z,57.97
2023-03-17T07:14:36.590Z,57.01
2023-03-17T07:17:04.768Z,57.02
2023-03-17T07:19:31.870Z,57.11
2023-03-17T07:21:58.619Z,56.67
2023-03-17T07:24:25.949Z,56.23
2023-03-17T07:26:52.880Z,55.96
2023-03-17T07:29:19.534Z,56.19
2023-03-17T07:31:46.184Z,55.94
2023-03-17T07:34:13.167Z,55.94
2023-03-17T07:36:39.919Z,55.15
2023-03-17T07:39:07.225Z,54.78
2023-03-17T07:41:34.040Z,54.23
2023-03-17T07:44:01.056Z,54.40
2023-03-17T07:46:27.717Z,54.04
2023-03-17T07:48:54.194Z,53.46
2023-03-17T07:51:25.261Z,53.45
2023-03-17T07:53:51.897Z,53.55
2023-03-17T07:56:18.344Z,53.14
2023-03-17T07:58:44.906Z,52.99
2023-03-17T08:01:11.393Z,53.00
2023-03-17T08:03:41.323Z,52.71
2023-03-17T08:06:08.786Z,51.85
2023-03-17T08:08:35.984Z,51.64
2023-03-17T08:11:05.030Z,51.81
2023-03-17T08:13:32.699Z,51.66
2023-03-17T08:15:59.251Z,50.46
2023-03-17T08:18:25.778Z,51.22
2023-03-17T08:20:52.397Z,50.89
2023-03-17T08:23:19.674Z,51.01
2023-03-17T08:25:47.573Z,50.48
2023-03-17T08:28:15.287Z,50.52
2023-03-17T08:30:43.054Z,49.90
2023-03-17T08:33:09.895Z,49.74
2023-03-17T08:35:37.397Z,49.46
2023-03-17T08:38:04.612Z,49.86
2023-03-17T08:40:31.635Z,49.54
2023-03-17T08:42:58.284Z,49.37
2023-03-17T08:45:24.834Z,49.08
2023-03-17T08:47:51.486Z,50.35
2023-03-17T08:50:21.877Z,49.48
2023-03-17T08:52:48.984Z,49.53
2023-03-17T08:55:16.467Z,49.84
2023-03-17T08:57:44.643Z,48.98
2023-03-17T09:00:13.965Z,49.46
2023-03-17T09:02:43.035Z,49.22
2023-03-17T09:05:11.883Z,49.01
2023-03-17T09:07:38.490Z,49.27
2023-03-17T09:10:07.159Z,49.71
2023-03-17T09:12:34.352Z,50.29
2023-03-17T09:15:01.783Z,49.57
2023-03-17T09:17:28.797Z,48.53
2023-03-17T09:19:55.282Z,49.71
2023-03-17T09:22:21.716Z,50.08
2023-03-17T09:24:48.182Z,47.24
2023-03-17T09:27:14.563Z,48.44
2023-03-17T09:29:42.008Z,47.25
2023-03-17T09:32:08.723Z,47.84
2023-03-17T09:34:35.977Z,47.59
2023-03-17T09:37:02.496Z,46.83
2023-03-17T09:39:28.958Z,46.97
2023-03-17T09:42:19.265Z,45.47
2023-03-17T09:44:45.867Z,46.67
2023-03-17T09:47:42.669Z,46.34
2023-03-17T09:50:15.822Z,46.59
2023-03-17T09:52:42.935Z,45.10
2023-03-17T09:55:20.072Z,45.59
2023-03-17T09:57:47.318Z,45.21
2023-03-17T10:00:20.676Z,45.44
2023-03-17T10:02:47.269Z,45.33
2023-03-17T10:05:28.869Z,45.70
2023-03-17T10:08:22.720Z,45.65
2023-03-17T10:10:59.029Z,45.71
2023-03-17T10:14:04.395Z,44.96
2023-03-17T10:16:54.915Z,45.80
2023-03-17T10:19:28.313Z,44.62
2023-03-17T10:22:04.672Z,44.20
2023-03-17T10:24:33.902Z,44.83
2023-03-17T10:27:06.548Z,45.13
2023-03-17T10:29:33.177Z,44.47
2023-03-17T10:31:59.742Z,44.31
2023-03-17T10:34:32.664Z,44.29
2023-03-17T10:37:19.878Z,44.06
2023-03-17T10:39:50.392Z,45.24
2023-03-17T10:42:22.342Z,44.35
2023-03-17T10:45:12.380Z,43.45
2023-03-17T10:47:40.788Z,44.57
2023-03-17T10:50:40.958Z,44.10
2023-03-17T10:53:20.343Z,43.97
2023-03-17T10:55:52.531Z,43.70
2023-03-17T10:58:23.466Z,43.15
2023-03-17T11:01:08.524Z,43.26
2023-03-17T11:03:39.923Z,43.13
2023-03-17T11:06:14.334Z,42.59
2023-03-17T11:08:47.219Z,43.31
2023-03-17T11:11:25.985Z,42.58
2023-03-17T11:14:10.460Z,42.80
2023-03-17T11:16:54.180Z,43.36
2023-03-17T11:19:39.624Z,43.20
2023-03-17T11:22:26.777Z,43.16
2023-03-17T11:25:11.702Z,42.21
2023-03-17T11:28:08.001Z,41.53
2023-03-17T11:30:37.017Z,41.31
2023-03-17T11:33:24.879Z,41.29
2023-03-17T11:36:27.777Z,40.96
2023-03-17T11:39:00.691Z,42.70
2023-03-17T11:41:50.970Z,42.19
2023-03-17T11:44:55.070Z,42.24
2023-03-17T11:47:49.752Z,42.21
2023-03-17T11:50:27.816Z,41.85
2023-03-17T11:53:09.655Z,42.54
2023-03-17T11:55:50.242Z,41.61
2023-03-17T11:58:33.489Z,41.06
2023-03-17T12:01:02.073Z,41.67
2023-03-17T12:03:34.520Z,40.71
2023-03-17T12:06:05.997Z,40.88
2023-03-17T12:08:46.623Z,41.71
2023-03-17T12:11:17.962Z,41.07
2023-03-17T12:13:49.601Z,41.35
2023-03-17T12:16:26.868Z,40.93
2023-03-17T12:19:31.359Z,41.17
2023-03-17T12:22:00.897Z,41.25
2023-03-17T12:24:47.653Z,41.06
2023-03-17T12:27:20.066Z,40.75
2023-03-17T12:29:52.497Z,41.34
2023-03-17T12:32:19.717Z,39.51
2023-03-17T12:34:57.342Z,40.32
2023-03-17T12:37:27.575Z,40.30
2023-03-17T12:40:00.734Z,39.39
2023-03-17T12:42:35.561Z,40.09
2023-03-17T12:45:28.393Z,40.79
2023-03-17T12:48:13.242Z,40.83
2023-03-17T12:51:06.398Z,40.63
2023-03-17T12:53:40.407Z,40.59
2023-03-17T12:56:36.645Z,41.02
2023-03-17T12:59:06.723Z,41.58
2023-03-17T13:01:34.698Z,41.39
2023-03-17T13:04:20.498Z,41.50
2023-03-17T13:07:12.937Z,41.49
2023-03-17T13:09:45.159Z,41.60
2023-03-17T13:12:55.692Z,42.14
2023-03-17T13:15:25.051Z,42.74
2023-03-17T13:18:13.489Z,42.67
2023-03-17T13:20:52.649Z,41.86
2023-03-17T13:23:23.955Z,41.64
2023-03-17T13:25:53.737Z,42.31
2023-03-17T13:28:41.433Z,42.05
2023-03-17T13:31:20.242Z,42.07
2023-03-17T13:33:53.161Z,41.38
2023-03-17T13:36:28.681Z,42.00
2023-03-17T13:39:20.504Z,42.10
2023-03-17T13:42:15.738Z,42.58
2023-03-17T13:45:07.894Z,41.88
2023-03-17T13:47:38.424Z,42.13
2023-03-17T13:50:23.484Z,42.08
2023-03-17T13:53:01.714Z,43.15
2023-03-17T13:55:34.973Z,42.30
2023-03-17T13:58:12.132Z,41.86
2023-03-17T14:00:41.244Z,42.86
2023-03-17T14:03:17.466Z,43.14
2023-03-17T14:05:49.911Z,43.09
2023-03-17T14:08:36.777Z,42.84
2023-03-17T14:11:34.965Z,43.61
2023-03-17T14:14:32.460Z,43.15
2023-03-17T14:17:25.112Z,43.77
2023-03-17T14:20:06.983Z,42.97
2023-03-17T14:22:45.254Z,43.19
2023-03-17T14:25:21.442Z,43.87
2023-03-17T14:27:53.033Z,43.50
2023-03-17T14:30:23.693Z,44.03
2023-03-17T14:33:14.197Z,44.13
2023-03-17T14:35:43.037Z,43.89
2023-03-17T14:38:23.053Z,44.24
2023-03-17T14:40:50.672Z,44.98
2023-03-17T14:43:17.604Z,45.14
2023-03-17T14:46:00.615Z,45.36
2023-03-17T14:48:37.781Z,44.82
2023-03-17T14:51:16.012Z,45.20
2023-03-17T14:53:46.176Z,44.80
2023-03-17T14:56:13.676Z,45.04
2023-03-17T14:58:45.922Z,44.55
2023-03-17T15:01:32.573Z,44.68
2023-03-17T15:04:07.158Z,44.96
2023-03-17T15:06:36.251Z,44.68
2023-03-17T15:09:17.078Z,44.57
2023-03-17T15:11:45.109Z,44.63
2023-03-17T15:14:21.246Z,44.57
2023-03-17T15:16:51.613Z,45.46
2023-03-17T15:19:44.391Z,44.97
2023-03-17T15:22:30.120Z,44.34
2023-03-17T15:25:02.329Z,44.81
2023-03-17T15:27:30.557Z,44.39
2023-03-17T15:29:57.463Z,44.44
2023-03-17T15:32:26.108Z,44.40
2023-03-17T15:34:54.777Z,44.94
2023-03-17T15:37:26.944Z,44.89
2023-03-17T15:39:55.093Z,44.82
2023-03-17T15:42:27.692Z,45.01
2023-03-17T15:44:54.722Z,45.39
2023-03-17T15:47:25.122Z,45.53
2023-03-17T15:49:52.173Z,45.74
2023-03-17T15:52:21.701Z,45.55
2023-03-17T15:54:48.722Z,45.18
2023-03-17T15:57:15.604Z,44.69
2023-03-17T15:59:42.107Z,45.15
2023-03-17T16:02:29.084Z,45.30
2023-03-17T16:04:55.774Z,45.19
2023-03-17T16:07:22.835Z,45.22
2023-03-17T16:09:49.336Z,45.60
2023-03-17T16:12:16.071Z,45.48
2023-03-17T16:14:45.770Z,45.20
2023-03-17T16:17:22.000Z,44.91
2023-03-17T16:19:48.706Z,45.35
2023-03-17T16:22:39.811Z,45.11
2023-03-17T16:25:22.750Z,45.41
2023-03-17T16:27:49.328Z,45.63
2023-03-17T16:30:18.052Z,46.21
2023-03-17T16:32:44.649Z,45.88
2023-03-17T16:35:20.865Z,46.15
2023-03-17T16:37:48.192Z,46.12
2023-03-17T16:40:27.041Z,46.44
2023-03-17T16:42:54.572Z,46.06
2023-03-17T16:45:29.440Z,46.54
2023-03-17T16:47:57.169Z,46.03
2023-03-17T16:50:26.716Z,45.40
2023-03-17T16:52:53.394Z,45.46
2023-03-17T16:55:21.474Z,45.55
2023-03-17T16:57:50.549Z,45.20
2023-03-17T17:00:19.589Z,45.57
2023-03-17T17:02:49.171Z,45.73
2023-03-17T17:05:24.851Z,45.66
2023-03-17T17:07:52.332Z,45.90
2023-03-17T17:10:21.632Z,46.44
2023-03-17T17:12:49.007Z,46.55
2023-03-17T17:15:18.219Z,47.30
2023-03-17T17:17:48.736Z,47.66
2023-03-17T17:20:17.854Z,47.71
2023-03-17T17:22:44.460Z,47.87
2023-03-17T17:25:12.082Z,47.63
2023-03-17T17:27:41.797Z,47.73
2023-03-17T17:30:12.203Z,47.42
2023-03-17T17:32:39.382Z,47.69
2023-03-17T17:35:07.767Z,48.18
2023-03-17T17:37:35.432Z,48.01
2023-03-17T17:40:02.188Z,48.47
2023-03-17T17:42:28.598Z,48.66
2023-03-17T17:44:55.132Z,47.96
2023-03-17T17:47:21.557Z,48.67
2023-03-17T17:49:47.988Z,48.62
2023-03-17T17:52:14.687Z,48.36
2023-03-17T17:54:41.120Z,48.84
2023-03-17T17:57:07.776Z,49.25
2023-03-17T17:59:34.140Z,48.85
2023-03-17T18:02:01.088Z,48.28
2023-03-17T18:04:27.532Z,47.63
2023-03-17T18:06:54.004Z,47.70
2023-03-17T18:09:20.433Z,48.47
2023-03-17T18:11:47.313Z,49.94
2023-03-17T18:14:13.899Z,51.60
2023-03-17T18:16:41.066Z,51.36
2023-03-17T18:19:09.543Z,51.11
2023-03-17T18:21:36.483Z,51.67
2023-03-17T18:24:04.703Z,52.30
2023-03-17T18:26:32.850Z,52.12
2023-03-17T18:28:59.638Z,52.83
2023-03-17T18:31:31.532Z,54.39
2023-03-17T18:34:04.330Z,53.87
2023-03-17T18:36:31.237Z,53.86
2023-03-17T18:38:57.701Z,54.08
2023-03-17T18:41:25.502Z,52.14
2023-03-17T18:43:52.590Z,52.17
2023-03-17T18:46:19.100Z,51.73
2023-03-17T18:48:45.579Z,51.10
2023-03-17T18:51:12.246Z,51.15
2023-03-17T18:53:39.152Z,51.20
2023-03-17T18:56:06.500Z,51.13
2023-03-17T18:58:33.075Z,52.07
2023-03-17T19:01:01.345Z,51.78
2023-03-17T19:03:29.274Z,51.62
2023-03-17T19:05:56.109Z,51.74
2023-03-17T19:08:22.601Z,51.56
2023-03-17T19:10:49.309Z,50.98
2023-03-17T19:13:16.402Z,50.40
2023-03-17T19:15:42.937Z,51.01
2023-03-17T19:18:09.669Z,50.91
2023-03-17T19:20:36.675Z,51.54
2023-03-17T19:23:07.942Z,50.98
2023-03-17T19:25:36.768Z,51.72
2023-03-17T19:28:04.470Z,52.01
2023-03-17T19:30:31.342Z,51.55
2023-03-17T19:32:57.966Z,51.77
2023-03-17T19:35:24.433Z,51.36
2023-03-17T19:37:51.495Z,51.55
2023-03-17T19:40:17.911Z,52.37
2023-03-17T19:42:44.334Z,52.80
2023-03-17T19:45:11.490Z,53.34
2023-03-17T19:47:38.806Z,53.46
2023-03-17T19:50:07.008Z,54.88
2023-03-17T19:52:33.417Z,54.79
2023-03-17T19:54:59.956Z,55.11
2023-03-17T19:57:29.185Z,55.88
2023-03-17T19:59:55.642Z,55.54
2023-03-17T20:02:22.011Z,55.72
2023-03-17T20:04:49.101Z,55.94
2023-03-17T20:07:15.772Z,56.03
2023-03-17T20:09:44.485Z,56.75
2023-03-17T20:12:11.088Z,57.08
2023-03-17T20:14:37.891Z,57.18
2023-03-17T20:17:04.383Z,57.62
2023-03-17T20:19:31.031Z,57.32
2023-03-17T20:21:58.516Z,57.45
2023-03-17T20:24:26.923Z,58.00
2023-03-17T20:26:56.788Z,58.75
2023-03-17T20:29:23.421Z,59.25
2023-03-17T20:31:49.857Z,59.43
2023-03-17T20:34:16.809Z,58.22
2023-03-17T20:36:43.456Z,59.44
2023-03-17T20:39:14.792Z,60.23
2023-03-17T20:41:41.580Z,60.92
2023-03-17T20:44:08.093Z,61.43
2023-03-17T20:46:34.576Z,62.16
2023-03-17T20:49:01.979Z,62.81
2023-03-17T20:51:28.450Z,63.55
2023-03-17T20:53:56.695Z,63.96
2023-03-17T20:56:24.459Z,64.44
2023-03-17T20:58:53.065Z,65.41
2023-03-17T21:01:21.456Z,66.32
2023-03-17T21:03:49.770Z,67.25
2023-03-17T21:06:16.753Z,68.78
2023-03-17T21:08:45.987Z,68.02
2023-03-17T21:11:17.257Z,68.02
2023-03-17T21:13:44.197Z,68.77
2023-03-17T21:16:23.690Z,69.70
2023-03-17T21:18:51.016Z,70.58
2023-03-17T21:21:18.460Z,70.53
2023-03-17T21:23:46.003Z,70.30
2023-03-17T21:26:14.422Z,70.57
2023-03-17T21:28:42.367Z,71.00
2023-03-17T21:31:10.806Z,71.24
2023-03-17T21:33:38.086Z,71.43
2023-03-17T21:36:05.796Z,71.63
2023-03-17T21:38:32.592Z,72.30
2023-03-17T21:41:18.356Z,72.27
2023-03-17T21:43:47.008Z,72.29
2023-03-17T21:46:14.680Z,72.60
2023-03-17T21:48:41.174Z,72.98
2023-03-17T21:51:08.861Z,73.19
2023-03-17T21:53:35.278Z,73.39
2023-03-17T21:56:01.949Z,73.74
2023-03-17T21:58:28.370Z,74.85
2023-03-17T22:00:54.816Z,74.65
2023-03-17T22:03:21.481Z,75.73
2023-03-17T22:05:48.296Z,75.95
2023-03-17T22:08:15.223Z,76.63
2023-03-17T22:10:41.663Z,76.42
2023-03-17T22:13:08.319Z,76.58
2023-03-17T22:15:35.957Z,77.76
2023-03-17T22:18:02.585Z,78.36
2023-03-17T22:20:30.107Z,78.29
2023-03-17T22:22:56.754Z,78.54
2023-03-17T22:25:23.521Z,77.86
2023-03-17T22:27:49.929Z,77.85
2023-03-17T22:30:16.863Z,77.99
2023-03-17T22:32:43.371Z,77.49
2023-03-17T22:35:11.178Z,77.77
2023-03-17T22:37:38.292Z,77.88
2023-03-17T22:40:06.573Z,77.44
2023-03-17T22:42:33.305Z,77.78
2023-03-17T22:44:59.717Z,77.96
2023-03-17T22:47:26.552Z,78.08
2023-03-17T22:49:52.983Z,78.26
2023-03-17T22:52:19.393Z,78.02
2023-03-17T22:54:45.933Z,77.98
2023-03-17T22:57:12.521Z,77.49
2023-03-17T22:59:39.289Z,76.43
2023-03-17T23:02:06.382Z,76.70
2023-03-17T23:04:33.589Z,76.29
2023-03-17T23:06:59.984Z,76.94
2023-03-17T23:09:29.634Z,76.65
2023-03-17T23:11:56.335Z,77.31
2023-03-17T23:14:23.343Z,77.35
2023-03-17T23:16:51.524Z,77.41
2023-03-17T23:19:18.091Z,76.88
2023-03-17T23:21:44.706Z,76.45
2023-03-17T23:24:11.657Z,75.41
2023-03-17T23:26:38.185Z,75.25
2023-03-17T23:29:08.335Z,74.71
2023-03-17T23:31:35.070Z,73.55
2023-03-17T23:34:03.829Z,73.46
2023-03-17T23:36:30.256Z,73.43
2023-03-17T23:38:56.792Z,72.77
2023-03-17T23:41:23.175Z,73.07
2023-03-17T23:43:49.773Z,73.39
2023-03-17T23:46:16.263Z,73.44
2023-03-17T23:48:43.392Z,72.97
2023-03-17T23:51:12.545Z,71.87
2023-03-17T23:53:42.347Z,72.01
2023-03-17T23:56:11.324Z,72.56
2023-03-17T23:58:38.181Z,72.18
